createdAt,value
2017-04-17T16:25:56.528Z,19.5
2017-04-17T16:26:55.033Z,19.5
2017-04-17T16:27:52.581Z,19.5
2017-04-17T16:28:50.896Z,19.7
2017-04-17T16:29:49.734Z,19.7
2017-04-17T16:30:47.822Z,19.8
2017-04-17T16:31:46.350Z,20.1
2017-04-17T16:32:44.144Z,20.0
2017-04-17T16:33:42.489Z,20.3
2017-04-17T16:34:40.219Z,20.3
2017-04-17T16:35:38.171Z,20.5
2017-04-17T16:36:35.730Z,20.6
2017-04-17T16:37:33.357Z,20.7
2017-04-17T16:38:32.400Z,20.9
2017-04-17T16:39:31.143Z,20.9
2017-04-17T16:40:28.769Z,21.0
2017-04-17T16:41:26.373Z,21.2
2017-04-17T16:42:24.691Z,21.3
2017-04-17T16:43:23.158Z,21.4
2017-04-17T16:44:21.822Z,21.5
2017-04-17T16:45:19.772Z,21.5
2017-04-17T16:46:18.173Z,21.7
2017-04-17T16:47:15.729Z,21.7
2017-04-17T16:48:13.471Z,21.8
2017-04-17T16:49:11.187Z,21.9
2017-04-17T16:50:09.544Z,22.0
2017-04-17T16:51:07.109Z,22.0
2017-04-17T16:52:05.665Z,22.1
2017-04-17T16:53:04.027Z,22.2
2017-04-17T16:54:01.704Z,22.2
2017-04-17T16:55:00.686Z,22.3
2017-04-17T16:55:59.019Z,22.4
2017-04-17T16:56:57.879Z,22.4
2017-04-17T16:57:56.865Z,22.5
2017-04-17T16:58:55.681Z,22.5
2017-04-17T16:59:53.240Z,22.6
2017-04-17T17:00:51.952Z,22.7
2017-04-17T17:01:50.450Z,22.8
2017-04-17T17:02:48.371Z,22.7
2017-04-17T17:03:46.429Z,22.8
2017-04-17T17:04:45.079Z,22.9
2017-04-17T17:05:42.758Z,22.9
2017-04-17T17:06:41.567Z,23.0
2017-04-17T17:07:39.321Z,22.9
2017-04-17T17:08:36.960Z,23.0
2017-04-17T17:09:35.037Z,23.1
2017-04-17T17:10:32.797Z,23.1
2017-04-17T17:11:30.785Z,23.1
2017-04-17T17:12:31.085Z,23.2
2017-04-17T17:13:28.717Z,23.2
2017-04-17T17:14:26.758Z,23.2
2017-04-17T17:15:24.389Z,23.3
2017-04-17T17:16:23.676Z,23.3
2017-04-17T17:17:22.496Z,23.3
2017-04-17T17:18:20.919Z,23.3
2017-04-17T17:19:19.426Z,23.3
2017-04-17T17:20:17.025Z,23.3
2017-04-17T17:21:17.168Z,23.3
2017-04-17T17:22:16.064Z,23.3
2017-04-17T17:23:13.923Z,23.3
2017-04-17T17:24:11.660Z,23.3
2017-04-17T17:25:09.750Z,23.2
2017-04-17T17:26:08.248Z,23.2
2017-04-17T17:27:06.757Z,23.1
2017-04-17T17:28:05.914Z,23.1
2017-04-17T17:29:04.332Z,23.1
2017-04-17T17:30:05.027Z,23.1
2017-04-17T17:31:04.751Z,23.0
2017-04-17T17:32:03.254Z,23.1
2017-04-17T17:33:00.861Z,23.0
2017-04-17T17:33:59.616Z,23.0
2017-04-17T17:34:58.594Z,22.9
2017-04-17T17:35:57.138Z,22.9
2017-04-17T17:36:54.770Z,22.9
2017-04-17T17:37:53.089Z,22.9
2017-04-17T17:38:50.919Z,22.9
2017-04-17T17:39:48.870Z,22.9
2017-04-17T17:40:49.159Z,22.8
2017-04-17T17:41:46.785Z,22.9
2017-04-17T17:42:44.623Z,22.8
2017-04-17T17:43:43.012Z,22.8
2017-04-17T17:44:40.576Z,22.8
2017-04-17T17:45:38.141Z,22.8
2017-04-17T17:46:35.697Z,22.8
2017-04-17T17:47:34.742Z,22.8
2017-04-17T17:48:32.318Z,22.7
2017-04-17T17:49:30.014Z,22.8
2017-04-17T17:50:28.860Z,22.7
2017-04-17T17:51:27.224Z,22.8
2017-04-17T17:52:24.792Z,22.7
2017-04-17T17:53:22.451Z,22.8
2017-04-17T17:54:20.804Z,22.8
2017-04-17T17:55:18.480Z,22.7
2017-04-17T17:56:16.095Z,22.8
2017-04-17T17:57:14.471Z,22.8
2017-04-17T17:58:12.852Z,22.7
2017-04-17T17:59:11.468Z,22.7
2017-04-17T18:00:09.810Z,22.7
2017-04-17T18:01:08.200Z,22.7
2017-04-17T18:02:06.645Z,22.7
2017-04-17T18:03:05.078Z,22.7
2017-04-17T18:04:03.501Z,22.7
2017-04-17T18:05:02.194Z,22.7
2017-04-17T18:06:00.540Z,22.7
2017-04-17T18:06:59.228Z,22.7
2017-04-17T18:07:57.605Z,22.7
2017-04-17T18:08:55.287Z,22.7
2017-04-17T18:09:53.626Z,22.7
2017-04-17T18:10:51.347Z,22.7
2017-04-17T18:11:48.940Z,22.8
2017-04-17T18:12:47.297Z,22.8
2017-04-17T18:13:45.646Z,22.8
